Time;durP1;ratioP1;P1;durP2;ratioP2;P2;SDS_P1;SDS_P2;PMS_P1;PMS_P2;Temp;Humidity;BMP_temperature;BMP_pressure;BME280_temperature;BME280_humidity;BME280_pressure;Samples;Min_cycle;Max_cycle;Signal;HPM_P1;HPM_P2
2022/05/15 00:01:08;;;;;;;7.20;4.30;;;17.00;55.10;;;13.17;70.12;95680.75;5052148;28;20156;-51
2022/05/15 00:03:34;;;;;;;9.60;4.10;;;16.80;55.10;;;13.09;70.09;95691.22;5040375;28;20057;-51
2022/05/15 00:06:04;;;;;;;7.00;4.13;;;16.70;55.20;;;12.97;71.21;95686.22;5045831;28;20506;-52
2022/05/15 00:08:38;;;;;;;6.68;3.85;;;16.60;55.50;;;12.89;71.54;95673.47;5052204;28;20605;-51
2022/05/15 00:11:16;;;;;;;4.22;3.65;;;16.60;55.80;;;12.77;72.62;95665.75;5017553;28;20127;-49
2022/05/15 00:13:47;;;;;;;6.95;3.83;;;16.40;56.00;;;12.70;72.71;95668.75;5052181;28;20036;-50
2022/05/15 00:16:14;;;;;;;7.05;4.68;;;16.40;56.20;;;12.63;73.35;95673.59;5017910;28;20033;-53
2022/05/15 00:18:43;;;;;;;9.65;5.13;;;16.30;56.30;;;12.54;74.42;95664.56;5052126;28;20380;-54
2022/05/15 00:21:13;;;;;;;7.78;5.03;;;16.20;56.70;;;12.48;74.59;95669.13;5022074;28;20033;-53
2022/05/15 00:23:39;;;;;;;10.75;5.53;;;16.10;56.90;;;12.42;75.12;95667.53;5059326;28;20045;-56
2022/05/15 00:26:11;;;;;;;9.60;5.10;;;16.00;57.10;;;12.42;75.31;95664.88;5034067;28;20398;-55
2022/05/15 00:28:40;;;;;;;7.93;6.00;;;16.00;57.70;;;12.43;75.67;95665.66;5051876;28;20483;-54
2022/05/15 00:31:12;;;;;;;9.68;5.75;;;16.00;57.90;;;12.38;75.73;95665.66;5045006;28;20028;-52
2022/05/15 00:33:39;;;;;;;8.63;5.60;;;15.90;58.10;;;12.36;75.83;95660.63;5022869;28;20029;-49
2022/05/15 00:36:05;;;;;;;7.65;5.70;;;15.90;58.10;;;12.32;75.91;95669.47;5034100;28;20032;-53
2022/05/15 00:38:31;;;;;;;8.98;6.03;;;15.80;58.20;;;12.24;76.89;95663.59;5050712;28;20024;-52
2022/05/15 00:40:57;;;;;;;8.13;5.50;;;15.80;58.50;;;12.20;77.12;95665.22;5046690;28;20033;-55
2022/05/15 00:43:45;;;;;;;10.52;5.50;;;15.80;58.60;;;12.23;77.05;95661.22;5051761;28;20029;-55
2022/05/15 00:46:19;;;;;;;8.57;5.60;;;15.80;59.10;;;12.27;76.24;95664.94;5051733;28;20029;-52
2022/05/15 00:48:46;;;;;;;13.18;5.53;;;15.80;59.00;;;12.31;75.81;95668.63;5033803;28;20033;-51
2022/05/15 00:51:40;;;;;;;7.50;5.60;;;15.80;59.00;;;12.33;75.61;95657.69;5063505;28;20091;-55
2022/05/15 00:54:30;;;;;;;8.65;4.82;;;15.80;59.20;;;12.32;75.95;95664.13;5026221;28;20033;-56
2022/05/15 00:57:18;;;;;;;6.55;4.80;;;15.80;59.10;;;12.23;76.27;95667.34;5051345;28;20459;-55
2022/05/15 01:00:17;;;;;;;7.85;5.20;;;15.80;59.00;;;12.15;76.17;95659.09;5035876;28;20049;-56
2022/05/15 01:03:08;;;;;;;10.63;5.20;;;15.80;59.10;;;12.07;76.29;95662.34;5046687;28;20032;-56
2022/05/15 01:05:45;;;;;;;10.95;5.60;;;15.70;59.10;;;11.98;76.14;95659.41;5053113;28;20454;-54
2022/05/15 01:08:11;;;;;;;11.63;5.72;;;15.60;59.00;;;11.87;77.29;95657.81;5071295;28;20487;-55
2022/05/15 01:10:44;;;;;;;9.13;4.90;;;15.60;58.90;;;11.80;77.93;95660.75;5070769;28;20052;-55
2022/05/15 01:13:12;;;;;;;9.27;6.28;;;15.50;59.70;;;11.76;77.90;95659.69;5034415;28;20036;-54
2022/05/15 01:15:42;;;;;;;11.48;5.75;;;15.50;59.20;;;11.68;78.47;95663.69;5033461;28;20104;-56
2022/05/15 01:18:09;;;;;;;7.85;5.30;;;15.40;59.40;;;11.66;77.96;95659.69;5031363;28;20122;-54
2022/05/15 01:20:38;;;;;;;10.50;5.25;;;15.40;59.60;;;11.64;78.39;95659.19;5013212;28;20029;-54
2022/05/15 01:23:06;;;;;;;6.93;5.72;;;15.30;59.70;;;11.61;78.08;95660.50;5020386;28;20060;-54
2022/05/15 01:25:36;;;;;;;9.20;5.75;;;15.30;59.70;;;11.56;78.23;95658.66;5037078;28;20104;-54
2022/05/15 01:28:09;;;;;;;10.35;5.68;;;15.20;59.80;;;11.48;78.49;95661.06;4997463;28;20021;-55
2022/05/15 01:30:37;;;;;;;10.57;6.20;;;15.20;59.80;;;11.46;79.12;95663.97;5018295;28;20045;-53
2022/05/15 01:33:03;;;;;;;7.82;6.15;;;15.20;59.80;;;11.36;79.05;95664.00;5061267;28;20485;-52
2022/05/15 01:35:30;;;;;;;11.65;6.20;;;15.10;59.90;;;11.27;79.25;95661.06;5050879;28;20032;-56
2022/05/15 01:37:56;;;;;;;7.95;6.30;;;15.00;60.00;;;11.20;79.64;95659.72;5050977;28;20071;-54
2022/05/15 01:40:28;;;;;;;10.30;6.32;;;14.90;60.10;;;11.15;79.71;95654.38;5013416;28;20030;-52
2022/05/15 01:42:54;;;;;;;11.75;6.03;;;14.90;60.50;;;11.09;80.01;95653.56;5013327;28;20078;-55
2022/05/15 01:45:26;;;;;;;9.48;7.03;;;14.80;60.40;;;11.03;80.52;95657.31;5030346;28;20028;-52
2022/05/15 01:47:52;;;;;;;10.50;6.43;;;14.80;60.60;;;10.99;80.50;95654.38;5033198;28;20033;-54
2022/05/15 01:50:21;;;;;;;10.90;6.43;;;14.70;60.80;;;10.92;80.98;95650.38;5049420;28;20070;-50
2022/05/15 01:53:03;;;;;;;10.07;6.72;;;14.70;61.20;;;10.91;80.58;95648.78;5033096;28;20061;-54
2022/05/15 01:55:29;;;;;;;8.20;6.50;;;14.70;62.40;;;10.93;80.90;95644.78;5033184;28;20060;-51
2022/05/15 01:57:54;;;;;;;8.23;5.95;;;14.60;61.50;;;11.04;80.24;95650.94;5037301;28;20090;-50
2022/05/15 02:00:27;;;;;;;10.30;5.57;;;14.60;61.80;;;11.21;79.63;95637.31;5032582;28;20029;-54
2022/05/15 02:02:58;;;;;;;11.00;6.00;;;14.60;62.30;;;11.45;78.59;95638.38;5036418;28;20025;-51
2022/05/15 02:05:33;;;;;;;7.45;5.43;;;14.80;62.60;;;11.70;77.05;95644.75;5030746;28;20056;-52
2022/05/15 02:07:59;;;;;;;7.07;4.45;;;14.90;62.80;;;11.89;76.05;95653.03;5016018;28;20037;-55
2022/05/15 02:10:25;;;;;;;8.55;5.22;;;15.00;62.60;;;12.03;75.49;95648.72;5032595;28;20029;-54
2022/05/15 02:12:59;;;;;;;8.77;4.53;;;15.20;62.50;;;12.15;74.85;95638.53;5033983;28;20523;-54
2022/05/15 02:15:31;;;;;;;9.00;4.50;;;15.30;62.40;;;12.26;74.57;95644.63;5036754;28;20033;-55
2022/05/15 02:17:57;;;;;;;7.03;5.07;;;15.50;62.30;;;12.32;74.06;95640.09;5054272;28;20021;-55
2022/05/15 02:20:26;;;;;;;10.65;5.00;;;15.60;61.90;;;12.37;73.81;95646.19;5036044;28;20103;-55
2022/05/15 02:22:55;;;;;;;7.13;4.63;;;15.70;61.70;;;12.40;73.43;95642.16;5039188;23;20148;-54
2022/05/15 02:25:20;;;;;;;8.30;4.97;;;15.70;61.40;;;12.43;73.44;95636.28;5056182;28;20029;-53
2022/05/15 02:27:46;;;;;;;8.48;5.47;;;15.80;61.10;;;12.42;73.72;95643.50;5054373;28;20521;-53
2022/05/15 02:30:15;;;;;;;11.45;5.28;;;15.80;60.90;;;12.42;73.93;95648.84;5037183;28;20051;-52
2022/05/15 02:32:41;;;;;;;7.75;5.47;;;15.90;60.70;;;12.37;74.13;95642.72;5033263;28;20037;-55
2022/05/15 02:35:11;;;;;;;7.60;4.60;;;15.90;60.40;;;12.33;73.90;95644.34;5033704;28;20025;-53
2022/05/15 02:37:44;;;;;;;6.70;5.03;;;15.90;60.40;;;12.26;73.56;95631.28;5034662;28;20021;-54
2022/05/15 02:40:20;;;;;;;7.70;5.05;;;15.90;60.30;;;12.34;73.62;95640.59;5034724;28;20049;-53
2022/05/15 02:42:48;;;;;;;7.65;4.72;;;15.90;60.30;;;12.31;73.59;95638.47;5034730;28;20022;-52
2022/05/15 02:45:14;;;;;;;9.13;5.20;;;15.90;60.10;;;12.32;73.41;95643.56;5033703;28;20029;-53
2022/05/15 02:47:41;;;;;;;7.53;4.75;;;15.90;60.10;;;12.29;73.21;95636.09;5033373;28;20083;-51
2022/05/15 02:52:54;;;;;;;6.43;4.70;;;15.90;60.00;;;12.29;74.57;95645.97;5034388;28;20116;-52
2022/05/15 02:55:22;;;;;;;7.40;5.35;;;15.90;60.00;;;12.18;74.30;95645.19;5033346;28;20428;-56
2022/05/15 02:57:51;;;;;;;8.48;5.57;;;15.80;59.90;;;12.09;74.70;95649.50;5036933;28;20025;-52
2022/05/15 03:00:27;;;;;;;11.05;6.13;;;15.80;59.70;;;11.93;74.75;95656.75;5034542;28;20365;-55
2022/05/15 03:03:02;;;;;;;10.10;5.68;;;15.70;59.80;;;11.75;76.23;95656.25;5033184;28;20033;-56
2022/05/15 03:05:28;;;;;;;8.45;5.68;;;15.60;59.80;;;11.63;76.64;95647.72;5034347;28;20034;-52
2022/05/15 03:07:54;;;;;;;9.25;5.80;;;15.50;59.80;;;11.53;77.04;95659.19;5034354;28;20029;-52
2022/05/15 03:10:25;;;;;;;10.55;6.82;;;15.30;60.00;;;11.54;77.57;95649.31;5033100;28;20064;-54
2022/05/15 03:12:54;;;;;;;10.77;5.75;;;15.30;60.50;;;11.55;77.40;95648.25;5034107;28;20068;-53
2022/05/15 03:15:32;;;;;;;12.15;5.95;;;15.20;60.70;;;11.54;77.33;95647.44;5034161;28;20026;-50
2022/05/15 03:18:00;;;;;;;6.20;5.35;;;15.20;61.00;;;11.52;77.08;95651.44;5034115;28;20025;-52
2022/05/15 03:20:29;;;;;;;7.90;5.70;;;15.20;60.90;;;11.55;77.09;95662.38;5016216;28;20021;-53
2022/05/15 03:22:56;;;;;;;13.45;6.45;;;15.20;61.10;;;11.50;77.85;95669.59;5033718;28;20041;-53
2022/05/15 03:25:24;;;;;;;9.77;6.10;;;15.20;61.10;;;11.39;78.18;95662.66;5020704;28;20400;-51
2022/05/15 03:28:04;;;;;;;9.70;6.15;;;15.10;61.10;;;11.32;78.33;95660.28;5032704;28;20056;-51
2022/05/15 03:30:33;;;;;;;8.00;6.22;;;15.10;61.30;;;11.21;78.48;95653.31;5033701;28;20033;-51
2022/05/15 03:33:04;;;;;;;12.23;6.47;;;15.00;61.20;;;11.11;79.19;95651.47;5039257;28;20111;-53
2022/05/15 03:35:34;;;;;;;7.75;5.95;;;14.90;61.40;;;11.09;79.54;95654.41;5051559;28;20483;-53
2022/05/15 03:38:06;;;;;;;8.13;5.68;;;14.90;61.60;;;11.05;79.84;95653.31;5035514;28;20034;-52
2022/05/15 03:40:33;;;;;;;8.25;6.13;;;14.80;61.80;;;11.05;79.94;95663.97;5031249;28;20049;-52
2022/05/15 03:42:58;;;;;;;8.55;5.72;;;14.80;61.90;;;11.01;79.94;95657.59;5031194;28;20117;-54
2022/05/15 03:45:24;;;;;;;10.27;6.05;;;14.80;62.00;;;10.99;79.91;95658.91;5032714;28;20108;-52
2022/05/15 03:47:53;;;;;;;9.07;6.20;;;14.70;62.20;;;11.04;80.00;95666.94;5022440;28;20029;-52
2022/05/15 03:50:31;;;;;;;7.10;5.68;;;14.80;62.40;;;11.05;79.87;95669.31;5049865;28;20029;-51
2022/05/15 03:52:57;;;;;;;11.70;5.97;;;14.80;62.60;;;11.02;79.88;95675.16;5033272;28;20125;-52
2022/05/15 03:55:23;;;;;;;11.75;6.03;;;14.70;62.20;;;10.97;79.79;95672.50;5022400;28;20071;-56
2022/05/15 03:57:58;;;;;;;8.18;5.93;;;14.70;62.30;;;10.93;80.15;95676.75;5053237;28;20451;-53
2022/05/15 04:00:28;;;;;;;8.80;6.35;;;14.70;62.50;;;10.87;80.09;95673.31;5053205;28;20104;-53
2022/05/15 04:03:06;;;;;;;10.05;6.80;;;14.70;62.40;;;10.81;80.57;95685.00;5051000;28;20467;-53
2022/05/15 04:05:32;;;;;;;7.53;5.75;;;14.60;63.20;;;10.83;80.81;95690.06;5033299;28;20033;-52
2022/05/15 04:08:04;;;;;;;8.88;6.18;;;14.60;62.80;;;10.83;80.92;95687.41;5033113;28;20026;-52
2022/05/15 04:10:30;;;;;;;7.88;6.03;;;14.60;63.00;;;10.83;80.73;95692.72;5025037;28;20108;-51
2022/05/15 04:13:04;;;;;;;11.48;6.07;;;14.60;62.70;;;10.78;80.66;95687.38;5033095;28;20104;-51
2022/05/15 04:15:29;;;;;;;11.23;6.63;;;14.70;62.90;;;10.83;81.28;95690.84;5031782;28;20025;-52
2022/05/15 04:18:04;;;;;;;8.98;6.45;;;14.60;63.00;;;10.82;80.69;95686.59;5033089;28;20509;-53
2022/05/15 04:20:33;;;;;;;8.77;5.90;;;14.70;63.10;;;10.81;81.17;95690.34;5023383;28;20025;-51
2022/05/15 04:23:03;;;;;;;9.63;6.40;;;14.70;63.00;;;10.81;81.29;95689.50;5032586;28;20041;-52
2022/05/15 04:25:31;;;;;;;9.30;6.47;;;14.70;63.00;;;10.78;80.93;95685.53;5031742;28;20029;-54
2022/05/15 04:27:57;;;;;;;9.95;6.55;;;14.60;62.80;;;10.76;81.26;95690.31;5032630;28;20026;-51
2022/05/15 04:30:27;;;;;;;10.73;6.70;;;14.60;62.80;;;10.72;81.72;95689.25;5032838;28;20388;-55
2022/05/15 04:32:53;;;;;;;10.60;7.00;;;14.60;63.00;;;10.78;81.94;95693.53;4998514;28;20021;-52
2022/05/15 04:35:22;;;;;;;7.28;6.40;;;14.60;62.90;;;10.88;81.93;95690.09;5014379;28;20037;-53
2022/05/15 04:37:56;;;;;;;9.70;6.60;;;14.70;63.00;;;11.06;81.74;95689.59;5032729;28;20033;-55
2022/05/15 04:40:22;;;;;;;10.98;6.85;;;14.70;63.10;;;11.29;81.52;95687.47;5032557;28;20105;-55
2022/05/15 04:42:48;;;;;;;12.25;6.75;;;14.90;63.00;;;11.58;81.05;95699.19;5032446;28;20116;-55
2022/05/15 04:45:14;;;;;;;10.70;5.88;;;15.00;63.00;;;11.80;80.51;95693.56;5031366;28;20032;-53
2022/05/15 04:47:57;;;;;;;8.73;5.93;;;15.10;62.80;;;11.98;79.05;95694.91;5032441;28;20026;-55
2022/05/15 04:50:26;;;;;;;;;;;15.30;62.80;;;12.12;78.36;95695.13;5030848;28;20369;-55
2022/05/15 04:52:51;;;;;;;12.52;5.22;;;15.30;62.00;;;12.15;77.92;95689.25;5032444;28;20334;-55
2022/05/15 04:55:17;;;;;;;7.57;5.47;;;15.50;62.00;;;12.24;77.18;95695.63;5029584;28;20030;-55
2022/05/15 04:57:44;;;;;;;9.23;5.90;;;15.60;61.90;;;12.42;76.64;95690.78;5014876;28;20036;-54
2022/05/15 05:00:17;;;;;;;9.23;5.70;;;15.70;61.80;;;12.53;76.70;95683.50;5032466;28;20026;-54
2022/05/15 05:02:49;;;;;;;7.25;5.13;;;15.90;61.80;;;12.70;75.82;95692.00;5031135;28;20049;-54
2022/05/15 05:05:18;;;;;;;8.40;5.38;;;16.00;61.60;;;12.84;74.99;95695.66;5014634;28;20022;-55
2022/05/15 05:07:43;;;;;;;6.10;5.00;;;16.20;61.40;;;13.11;75.06;95703.25;5014450;28;20026;-53
2022/05/15 05:10:12;;;;;;;6.72;5.10;;;16.40;61.20;;;13.42;74.59;95705.75;5032277;28;20035;-54
2022/05/15 05:12:37;;;;;;;5.97;4.65;;;16.60;60.90;;;13.73;72.94;95702.84;5031084;28;20029;-54
2022/05/15 05:15:06;;;;;;;9.25;5.20;;;16.90;60.70;;;14.01;71.72;95709.28;5032195;28;20056;-54
2022/05/15 05:17:35;;;;;;;6.95;4.85;;;17.10;60.30;;;14.36;71.27;95713.47;5032090;28;20152;-53
2022/05/15 05:20:01;;;;;;;7.22;5.05;;;17.40;59.90;;;14.57;69.14;95717.53;5014332;28;20033;-55
2022/05/15 05:22:27;;;;;;;8.90;5.03;;;17.70;59.50;;;14.78;67.39;95712.72;5024170;28;20644;-56
2022/05/15 05:24:56;;;;;;;5.75;4.30;;;18.00;59.00;;;15.03;66.52;95719.63;5032249;28;20034;-54
2022/05/15 05:27:23;;;;;;;6.53;4.10;;;18.40;58.50;;;15.37;65.58;95720.50;5032064;28;20040;-53
2022/05/15 05:29:49;;;;;;;6.55;4.78;;;18.60;58.00;;;15.70;63.90;95716.78;5032178;28;20048;-55
2022/05/15 05:32:21;;;;;;;11.52;5.47;;;18.90;57.60;;;15.99;62.97;95721.16;5031991;28;20036;-52
2022/05/15 05:34:47;;;;;;;6.78;4.32;;;19.20;57.00;;;16.25;62.10;95720.69;5022782;28;20171;-57
2022/05/15 05:37:17;;;;;;;8.93;5.68;;;19.60;56.60;;;16.47;61.53;95723.50;5034451;28;20123;-55
2022/05/15 05:39:52;;;;;;;7.13;5.22;;;19.90;56.00;;;16.71;60.28;95720.63;5050739;28;20390;-54
2022/05/15 05:42:18;;;;;;;7.72;5.53;;;20.20;55.30;;;16.88;59.53;95717.31;5050527;28;20424;-53
2022/05/15 05:44:43;;;;;;;9.07;4.70;;;20.50;54.80;;;17.07;58.65;95711.81;5051978;28;20093;-53
2022/05/15 05:47:09;;;;;;;7.95;4.85;;;20.80;54.10;;;17.31;58.10;95716.94;5034059;28;20029;-55
2022/05/15 05:49:35;;;;;;;5.40;4.13;;;21.10;53.60;;;17.55;58.47;95709.38;5019607;28;20030;-51
2022/05/15 05:52:01;;;;;;;5.90;4.65;;;21.40;53.10;;;17.79;57.22;95711.78;5034401;28;20597;-57
2022/05/15 05:54:29;;;;;;;5.32;4.63;;;21.70;52.60;;;18.02;56.53;95717.97;5035623;28;20427;-52
2022/05/15 05:56:55;;;;;;;6.57;4.50;;;22.00;52.10;;;18.29;56.24;95708.09;5034468;28;20477;-55
2022/05/15 05:59:25;;;;;;;8.73;4.68;;;22.20;51.60;;;18.59;54.98;95713.78;5035460;28;20064;-55
2022/05/15 06:01:50;;;;;;;6.45;3.80;;;22.50;51.00;;;18.80;54.09;95714.03;5017647;28;20048;-54
2022/05/15 06:07:00;;;;;;;9.55;5.28;;;23.10;49.80;;;19.02;55.27;95715.81;5035647;28;20037;-55
2022/05/15 06:09:29;;;;;;;5.05;3.80;;;23.40;49.40;;;19.15;53.07;95714.91;5035473;28;20479;-55
2022/05/15 06:11:57;;;;;;;7.38;4.13;;;23.50;48.60;;;19.34;53.82;95709.22;5017684;28;20064;-55
2022/05/15 06:14:23;;;;;;;7.63;3.90;;;23.70;48.10;;;19.48;52.20;95714.44;5035029;28;20030;-51
2022/05/15 06:16:52;;;;;;;8.70;3.95;;;23.90;47.40;;;19.66;51.56;95715.28;5035419;28;20083;-53
2022/05/15 06:19:18;;;;;;;6.22;4.35;;;24.00;47.20;;;19.71;53.18;95720.50;5034167;28;20044;-51
2022/05/15 06:21:44;;;;;;;8.57;4.50;;;24.10;47.00;;;19.74;52.60;95717.97;5035114;28;20029;-54
2022/05/15 06:24:10;;;;;;;4.90;4.05;;;24.20;46.90;;;19.88;52.42;95713.16;5017096;28;20463;-50
2022/05/15 06:26:36;;;;;;;7.45;4.28;;;24.30;46.60;;;20.03;50.51;95716.50;5034930;28;20041;-55
2022/05/15 06:29:02;;;;;;;7.65;3.67;;;24.50;45.90;;;20.17;49.82;95713.59;5033923;28;20026;-51
2022/05/15 06:31:40;;;;;;;7.40;3.92;;;24.60;45.40;;;20.29;49.76;95714.50;4989931;28;20484;-52
2022/05/15 06:34:05;;;;;;;10.50;4.70;;;24.80;45.00;;;20.33;48.89;95728.16;5035059;28;20030;-51
2022/05/15 06:36:32;;;;;;;5.15;3.95;;;24.90;44.30;;;20.54;49.66;95717.47;5016943;28;20064;-51
2022/05/15 06:39:01;;;;;;;8.10;4.55;;;25.10;44.10;;;20.82;49.66;95711.63;5033542;28;20025;-51
2022/05/15 06:41:26;;;;;;;6.03;4.00;;;25.30;43.90;;;21.06;47.76;95717.22;5034646;28;20034;-53
2022/05/15 06:43:55;;;;;;;7.03;4.22;;;25.50;43.60;;;21.32;47.19;95717.03;5017004;28;20079;-52
2022/05/15 06:46:31;;;;;;;5.38;3.88;;;25.80;43.10;;;21.59;47.52;95710.31;5033427;28;20056;-54
2022/05/15 06:49:00;;;;;;;5.75;3.80;;;26.10;42.80;;;21.95;46.40;95717.00;5033362;28;20073;-51
2022/05/15 06:51:26;;;;;;;6.65;4.13;;;26.40;42.40;;;22.13;46.00;95717.63;5021610;28;20108;-53
2022/05/15 06:53:52;;;;;;;7.63;4.75;;;26.60;42.50;;;22.26;45.60;95716.56;5016590;28;20033;-51
2022/05/15 06:59:08;;;;;;;4.22;3.83;;;27.20;40.90;;;22.48;45.77;95720.00;5034223;28;20079;-50
2022/05/15 07:01:34;;;;;;;5.68;4.57;;;27.60;40.60;;;22.54;44.29;95713.22;5034462;28;20099;-51
2022/05/15 07:04:03;;;;;;;7.45;5.32;;;27.80;40.00;;;22.53;44.25;95714.34;5016459;28;20484;-52
2022/05/15 07:06:30;;;;;;;8.50;4.68;;;28.00;39.20;;;22.65;44.05;95708.91;5033250;28;20057;-52
2022/05/15 07:08:55;;;;;;;7.13;4.88;;;28.30;38.80;;;22.89;43.59;95718.22;5034314;28;20032;-53
2022/05/15 07:11:21;;;;;;;6.38;4.53;;;28.50;38.40;;;23.07;43.58;95706.00;5034358;28;20392;-52
2022/05/15 07:13:50;;;;;;;8.65;4.90;;;28.80;38.10;;;23.37;43.33;95713.88;5034180;28;20030;-56
2022/05/15 07:16:16;;;;;;;7.53;5.43;;;29.10;37.70;;;23.76;42.36;95710.38;5016485;28;20392;-52
2022/05/15 07:18:44;;;;;;;5.75;5.25;;;29.40;37.40;;;23.99;42.10;95709.84;5034007;28;20037;-53
2022/05/15 07:21:10;;;;;;;7.90;4.93;;;29.60;36.80;;;23.97;43.04;95715.63;5034072;28;20033;-53
2022/05/15 07:23:37;;;;;;;8.02;5.18;;;29.80;36.60;;;23.93;41.66;95711.22;5032208;28;20034;-51
2022/05/15 07:26:06;;;;;;;8.27;4.72;;;30.00;36.00;;;23.97;42.14;95706.66;5033825;28;20030;-51
2022/05/15 07:28:38;;;;;;;7.00;5.32;;;30.20;35.50;;;24.15;41.93;95705.22;5033473;28;20025;-51
2022/05/15 07:31:03;;;;;;;7.70;5.05;;;30.40;35.30;;;24.44;42.36;95692.34;5033146;28;20484;-55
2022/05/15 07:33:29;;;;;;;6.25;4.50;;;30.60;35.20;;;24.80;41.01;95710.38;5033429;28;20095;-53
2022/05/15 07:35:58;;;;;;;6.22;4.88;;;30.90;34.90;;;25.13;41.13;95701.84;5032378;28;20484;-51
2022/05/15 07:38:56;;;;;;;6.10;5.00;;;31.10;34.60;;;25.67;40.12;95692.06;5051107;28;20091;-52
2022/05/15 07:41:25;;;;;;;7.03;5.70;;;31.60;34.50;;;25.83;40.26;95692.00;5053600;28;20036;-51
2022/05/15 07:43:51;;;;;;;7.30;5.32;;;31.90;33.90;;;25.93;38.94;95691.41;5032234;28;20034;-51
2022/05/15 07:46:19;;;;;;;9.15;5.80;;;32.10;33.30;;;26.31;38.43;95687.03;5030301;28;20127;-53
2022/05/15 07:48:48;;;;;;;7.47;5.57;;;32.20;33.00;;;26.62;38.67;95688.78;5013219;28;20419;-52
2022/05/15 07:51:17;;;;;;;6.68;5.38;;;32.40;32.70;;;26.94;38.07;95692.00;5017017;28;20029;-52
2022/05/15 07:53:46;;;;;;;8.50;5.20;;;32.60;32.60;;;26.97;36.70;95694.00;5032164;28;20030;-55
2022/05/15 07:56:14;;;;;;;5.38;4.88;;;32.90;32.00;;;27.06;37.23;95693.75;5033185;28;20563;-57
2022/05/15 07:58:41;;;;;;;11.18;6.57;;;33.00;31.60;;;27.24;37.04;95683.09;5031884;28;20049;-57
2022/05/15 08:01:10;;;;;;;7.18;5.20;;;33.20;31.40;;;27.34;35.91;95685.19;5032147;28;20029;-56
2022/05/15 08:03:43;;;;;;;10.85;5.75;;;33.50;31.00;;;27.34;36.67;95681.66;5033098;28;20113;-56
2022/05/15 08:09:04;;;;;;;7.63;5.63;;;33.90;30.30;;;27.75;36.18;95679.84;5033249;28;20040;-55
2022/05/15 08:11:31;;;;;;;10.60;5.78;;;34.00;30.00;;;27.52;35.67;95673.72;5031348;28;20021;-56
2022/05/15 08:14:08;;;;;;;7.47;5.50;;;34.00;29.70;;;27.37;35.88;95668.03;5015284;28;20092;-57
2022/05/15 08:16:38;;;;;;;6.30;4.90;;;34.10;29.30;;;27.39;36.39;95668.47;5031805;28;20025;-55
2022/05/15 08:24:41;;;;;;;7.13;5.63;;;34.00;29.00;;;27.60;35.42;95661.66;5101786;22;20059;-54
2022/05/15 08:27:10;;;;;;;5.97;5.10;;;34.00;28.90;;;27.71;35.61;95670.81;5057152;28;20565;-58
2022/05/15 08:29:37;;;;;;;6.75;5.57;;;34.10;28.90;;;27.70;35.82;95663.75;5093265;28;20090;-58
2022/05/15 08:32:10;;;;;;;6.93;5.07;;;34.20;28.90;;;27.46;35.79;95662.28;5059019;28;20020;-56
2022/05/15 08:34:36;;;;;;;8.82;5.88;;;34.20;28.60;;;27.40;36.80;95661.03;5055157;28;20029;-54
2022/05/15 08:37:03;;;;;;;7.00;5.40;;;34.20;28.60;;;27.26;37.14;95661.63;5054786;28;20032;-55
2022/05/15 08:39:33;;;;;;;7.70;5.60;;;34.10;28.60;;;27.48;36.24;95662.69;5072659;28;20043;-57
2022/05/15 08:42:40;;;;;;;6.65;5.65;;;34.20;28.60;;;27.76;36.16;95656.00;5054694;28;20036;-54
2022/05/15 08:45:14;;;;;;;8.18;6.32;;;34.20;28.70;;;27.80;35.50;95657.66;5071615;28;20052;-56
2022/05/15 08:47:47;;;;;;;6.35;5.53;;;34.30;28.50;;;27.77;36.14;95657.59;5071252;28;20087;-57
2022/05/15 08:50:28;;;;;;;7.05;6.32;;;34.40;28.60;;;27.83;35.46;95658.88;5071434;28;20024;-55
2022/05/15 08:53:14;;;;;;;7.22;5.65;;;34.50;28.50;;;28.02;36.31;95664.16;5055899;28;20550;-55
2022/05/15 08:55:59;;;;;;;8.57;6.35;;;34.60;28.60;;;28.07;35.60;95673.97;5070630;28;20032;-57
2022/05/15 08:58:43;;;;;;;9.85;5.97;;;34.80;28.50;;;28.11;34.89;95669.31;5072554;28;20230;-53
2022/05/15 09:01:13;;;;;;;8.23;5.63;;;34.90;28.20;;;28.26;35.57;95668.28;5058190;28;20032;-57
2022/05/15 09:03:42;;;;;;;9.70;6.22;;;35.10;28.20;;;28.65;34.73;95667.09;5054690;28;20035;-54
2022/05/15 09:07:11;;;;;;;7.88;6.25;;;35.20;27.90;;;28.72;34.37;95678.91;5072560;28;20083;-56
2022/05/15 09:10:19;;;;;;;9.82;5.65;;;35.40;27.90;;;29.11;33.33;95670.19;5065566;28;20052;-53
2022/05/15 09:12:59;;;;;;;7.72;6.10;;;35.70;27.70;;;29.51;32.85;95668.44;5057716;28;20041;-58
2022/05/15 09:15:28;;;;;;;7.20;5.72;;;35.90;27.50;;;29.50;33.60;95669.63;5055155;28;20036;-55
2022/05/15 09:18:16;;;;;;;7.95;5.15;;;36.20;27.30;;;29.85;33.66;95662.72;5054932;28;20036;-57
2022/05/15 09:21:07;;;;;;;7.40;6.40;;;36.40;27.20;;;30.01;32.75;95662.38;5056335;28;20032;-58
2022/05/15 09:23:56;;;;;;;7.93;6.50;;;36.70;27.00;;;30.06;31.78;95660.03;5075468;28;20059;-56
2022/05/15 09:26:41;;;;;;;5.88;5.35;;;36.90;26.50;;;30.34;31.94;95664.84;5059827;28;20029;-55
2022/05/15 09:29:28;;;;;;;8.65;6.13;;;37.00;26.40;;;30.50;31.45;95667.19;5059077;28;20024;-56
2022/05/15 09:32:38;;;;;;;6.10;5.28;;;37.10;26.30;;;30.45;31.40;95670.31;5075368;28;20021;-58
2022/05/15 09:35:25;;;;;;;8.65;6.10;;;37.30;26.10;;;30.70;31.32;95672.31;5073674;28;20040;-58
2022/05/15 09:43:53;;;;;;;6.57;5.88;;;37.90;25.50;;;30.94;30.21;95671.53;5063036;28;20106;-58
2022/05/15 09:46:23;;;;;;;5.85;4.60;;;38.00;25.40;;;30.38;31.53;95662.88;5040442;28;20419;-58
2022/05/15 09:49:33;;;;;;;7.53;4.85;;;38.00;25.10;;;30.87;30.13;95664.09;5040971;28;20067;-58
2022/05/15 09:52:34;;;;;;;5.97;4.82;;;38.10;25.20;;;31.19;31.26;95662.47;5042860;28;20090;-58
2022/05/15 09:55:07;;;;;;;6.15;4.88;;;38.30;25.10;;;31.35;29.95;95660.09;5056870;28;20033;-58
2022/05/15 09:57:34;;;;;;;5.45;4.95;;;38.40;24.90;;;31.37;31.38;95656.94;5075372;28;20028;-58
2022/05/15 10:00:05;;;;;;;7.47;5.63;;;38.50;25.10;;;31.51;29.90;95652.16;5057554;28;20036;-58
2022/05/15 10:02:53;;;;;;;7.18;5.38;;;38.60;24.90;;;31.18;31.28;95652.63;5041039;28;20020;-58
2022/05/15 10:05:27;;;;;;;6.13;5.35;;;38.60;24.80;;;31.52;31.06;95647.44;5074811;28;20104;-58
2022/05/15 10:08:22;;;;;;;7.03;5.80;;;38.50;24.90;;;31.65;30.32;95637.56;5040933;28;20360;-58
2022/05/15 10:11:19;;;;;;;5.97;5.40;;;38.50;24.80;;;31.00;30.51;95639.72;5057002;28;20106;-57
2022/05/15 10:13:57;;;;;;;6.78;5.90;;;38.50;24.60;;;30.84;31.25;95642.88;5062888;28;20024;-55
2022/05/15 10:16:43;;;;;;;7.95;5.55;;;38.40;24.60;;;31.35;31.07;95629.81;5056983;28;20031;-58
2022/05/15 10:19:38;;;;;;;6.38;5.43;;;38.30;25.00;;;31.27;29.92;95631.00;5057950;28;20029;-57
2022/05/15 10:22:33;;;;;;;5.95;5.30;;;38.30;24.60;;;30.93;31.67;95625.94;5057747;28;20032;-57
2022/05/15 10:25:34;;;;;;;6.65;5.05;;;38.30;24.70;;;31.06;30.79;95623.59;5056148;28;20495;-57
2022/05/15 10:28:33;;;;;;;6.70;5.40;;;38.20;24.80;;;31.38;30.40;95629.03;5074384;28;20024;-58
2022/05/15 10:31:33;;;;;;;8.57;5.55;;;38.10;24.80;;;31.47;31.32;95625.88;5056673;28;20036;-58
2022/05/15 10:34:10;;;;;;;7.03;4.95;;;38.10;24.80;;;31.00;30.71;95617.72;5073468;28;20116;-58
2022/05/15 10:36:49;;;;;;;7.38;5.60;;;38.10;24.60;;;30.55;30.91;95620.06;5057040;28;20052;-58
2022/05/15 10:39:57;;;;;;;7.35;5.13;;;38.10;24.30;;;30.67;31.11;95607.91;5073037;28;20498;-58
2022/05/15 10:42:57;;;;;;;6.53;5.38;;;38.00;24.30;;;30.56;31.21;95609.88;5066683;28;20107;-58
2022/05/15 10:45:57;;;;;;;6.25;4.78;;;38.00;24.40;;;30.58;31.27;95613.00;5049094;28;20033;-58
2022/05/15 10:48:45;;;;;;;6.90;5.00;;;37.90;24.50;;;30.66;31.27;95598.88;5031214;28;20132;-58
2022/05/15 10:51:48;;;;;;;5.53;4.90;;;37.90;24.50;;;30.47;31.39;95613.03;5074057;28;20094;-56
2022/05/15 10:58:08;;;;;;;7.25;5.20;;;37.80;24.60;;;30.97;31.67;95596.50;5073764;28;20039;-58
2022/05/15 11:01:05;;;;;;;8.75;5.25;;;37.90;24.80;;;30.82;31.52;95592.22;5055771;28;20413;-56
2022/05/15 11:03:53;;;;;;;7.07;5.07;;;37.90;24.90;;;31.10;31.28;95589.38;5072813;28;20550;-56
2022/05/15 11:06:54;;;;;;;6.18;5.40;;;37.90;24.60;;;30.81;31.09;95588.69;5056436;28;20039;-58
2022/05/15 11:09:57;;;;;;;5.82;5.20;;;38.00;24.60;;;31.18;30.72;95592.88;5068191;28;20082;-57